Time;durP1;ratioP1;P1;durP2;ratioP2;P2;SDS_P1;SDS_P2;PMS_P1;PMS_P2;Temp;Humidity;BMP_temperature;BMP_pressure;BME280_temperature;BME280_humidity;BME280_pressure;Samples;Min_cycle;Max_cycle;Signal;HPM_P1;HPM_P2
2022/08/25 00:00:52;;;;;;;16.43;15.03;;;23.80;80.10;;;;;;5089173;28;20530;-68
2022/08/25 00:03:18;;;;;;;16.40;14.90;;;23.80;80.40;;;;;;5079450;28;20468;-67
2022/08/25 00:05:45;;;;;;;16.80;15.00;;;23.80;79.90;;;;;;5081628;28;20471;-68
2022/08/25 00:08:13;;;;;;;16.20;14.80;;;23.80;80.10;;;;;;5076180;28;20991;-67
2022/08/25 00:10:41;;;;;;;23.57;15.23;;;23.80;79.70;;;;;;5077108;28;20830;-68
2022/08/25 00:13:10;;;;;;;18.17;16.37;;;23.80;79.90;;;;;;5082488;28;20455;-69
2022/08/25 00:15:37;;;;;;;16.57;15.07;;;23.70;79.90;;;;;;5075414;28;20992;-68
2022/08/25 00:18:06;;;;;;;16.40;14.70;;;23.70;79.10;;;;;;5082125;28;20454;-68
2022/08/25 00:20:33;;;;;;;21.53;15.07;;;23.70;78.70;;;;;;5076759;28;20469;-68
2022/08/25 00:23:01;;;;;;;17.07;15.33;;;23.70;78.40;;;;;;5080070;28;20466;-68
2022/08/25 00:25:27;;;;;;;16.27;14.90;;;23.70;78.60;;;;;;5080823;28;20490;-68
2022/08/25 00:27:55;;;;;;;15.73;14.67;;;23.70;78.20;;;;;;5088769;28;20466;-68
2022/08/25 00:30:23;;;;;;;15.37;14.47;;;23.70;78.50;;;;;;5085106;28;20490;-68
2022/08/25 00:32:50;;;;;;;16.17;14.57;;;23.60;78.40;;;;;;5076932;28;20462;-67
2022/08/25 00:35:18;;;;;;;18.17;15.00;;;23.70;78.10;;;;;;5081418;28;20477;-68
2022/08/25 00:37:45;;;;;;;16.77;15.30;;;23.70;78.20;;;;;;5080061;28;20481;-68
2022/08/25 00:40:14;;;;;;;16.20;15.10;;;23.60;78.30;;;;;;5076560;28;20462;-69
2022/08/25 00:42:41;;;;;;;16.60;15.13;;;23.60;78.60;;;;;;5082672;28;20455;-68
2022/08/25 00:45:10;;;;;;;16.90;15.70;;;23.50;78.70;;;;;;5080752;28;20465;-67
2022/08/25 00:47:37;;;;;;;16.13;14.77;;;23.50;78.80;;;;;;5077731;28;20489;-68
2022/08/25 00:50:08;;;;;;;16.27;14.90;;;23.50;78.90;;;;;;5083003;28;20490;-68
2022/08/25 00:52:40;;;;;;;16.40;15.10;;;23.40;78.90;;;;;;5078829;28;20466;-68
2022/08/25 00:55:14;;;;;;;16.50;15.40;;;23.40;78.90;;;;;;5082517;28;20489;-68
2022/08/25 00:57:43;;;;;;;16.07;15.07;;;23.30;79.40;;;;;;5075850;28;20465;-68
2022/08/25 01:00:15;;;;;;;15.90;14.90;;;23.30;79.60;;;;;;5084087;28;20489;-68
2022/08/25 01:02:42;;;;;;;15.57;14.47;;;23.20;80.40;;;;;;5076607;28;20466;-68
2022/08/25 01:05:09;;;;;;;17.00;15.47;;;23.20;80.60;;;;;;5082098;28;20857;-68
2022/08/25 01:07:40;;;;;;;17.40;15.73;;;23.10;81.10;;;;;;5081462;28;21044;-68
2022/08/25 01:10:08;;;;;;;20.53;16.03;;;23.00;80.30;;;;;;5078411;28;20948;-69
2022/08/25 01:12:37;;;;;;;16.73;15.40;;;22.90;81.50;;;;;;5082768;28;20469;-68
2022/08/25 01:15:11;;;;;;;16.23;14.57;;;22.80;81.70;;;;;;5079457;28;20486;-68
2022/08/25 01:17:46;;;;;;;16.27;15.00;;;22.70;82.30;;;;;;5079245;28;20469;-68
2022/08/25 01:20:14;;;;;;;16.03;14.97;;;22.60;83.40;;;;;;5078197;28;20471;-68
2022/08/25 01:22:44;;;;;;;22.07;15.40;;;22.50;82.60;;;;;;5083035;28;20459;-68
2022/08/25 01:25:22;;;;;;;17.00;15.10;;;22.40;82.60;;;;;;5082863;28;20462;-69
2022/08/25 01:27:49;;;;;;;16.83;15.60;;;22.30;83.60;;;;;;5089193;28;20460;-69
2022/08/25 01:30:16;;;;;;;17.93;16.20;;;22.20;82.90;;;;;;5077589;28;21030;-68
2022/08/25 01:32:44;;;;;;;16.83;15.50;;;22.20;83.60;;;;;;5077801;28;20490;-68
2022/08/25 01:35:12;;;;;;;17.73;16.00;;;22.10;85.10;;;;;;5080095;28;20458;-68
2022/08/25 01:37:39;;;;;;;16.90;15.57;;;22.00;86.00;;;;;;5072882;28;20466;-67
2022/08/25 01:40:09;;;;;;;16.70;15.40;;;22.00;86.40;;;;;;5074002;28;20470;-68
2022/08/25 01:42:47;;;;;;;16.93;15.33;;;22.00;86.90;;;;;;5078527;28;20496;-68
2022/08/25 01:45:15;;;;;;;17.83;16.13;;;21.90;86.80;;;;;;5079039;28;20462;-68
2022/08/25 01:47:42;;;;;;;17.30;15.53;;;21.90;86.30;;;;;;5079879;28;20458;-67
2022/08/25 01:50:11;;;;;;;16.37;15.27;;;21.80;86.90;;;;;;5078515;28;20500;-68
2022/08/25 01:52:49;;;;;;;17.87;16.20;;;21.80;86.80;;;;;;5081565;28;20521;-67
2022/08/25 01:55:18;;;;;;;17.23;16.03;;;21.80;87.30;;;;;;5074454;28;20489;-68
2022/08/25 01:57:45;;;;;;;16.40;15.33;;;21.80;86.70;;;;;;5085793;28;20504;-68
2022/08/25 02:00:13;;;;;;;16.93;15.27;;;21.70;86.80;;;;;;5081612;28;20472;-68
2022/08/25 02:02:41;;;;;;;15.80;14.70;;;21.80;86.90;;;;;;5075368;28;20504;-67
2022/08/25 02:05:09;;;;;;;15.83;14.63;;;21.80;87.10;;;;;;5079386;28;20485;-68
2022/08/25 02:07:37;;;;;;;16.73;15.53;;;21.80;87.10;;;;;;5081132;28;20458;-68
2022/08/25 02:10:06;;;;;;;16.40;15.00;;;21.80;86.90;;;;;;5080632;28;20483;-68
2022/08/25 02:12:35;;;;;;;15.80;14.60;;;21.70;87.00;;;;;;5073904;28;20463;-68
2022/08/25 02:15:04;;;;;;;16.03;14.53;;;21.70;86.90;;;;;;5077186;28;20487;-68
2022/08/25 02:17:31;;;;;;;15.50;14.60;;;21.70;87.30;;;;;;5080387;28;20457;-68
2022/08/25 02:19:58;;;;;;;16.47;14.90;;;21.70;87.10;;;;;;5085193;28;20458;-68
2022/08/25 02:22:25;;;;;;;16.43;15.00;;;21.60;87.80;;;;;;5084926;28;20463;-68
2022/08/25 02:24:53;;;;;;;15.97;14.83;;;21.60;87.60;;;;;;5087543;28;20505;-68
2022/08/25 02:27:19;;;;;;;17.40;15.80;;;21.60;87.70;;;;;;5087834;28;20472;-68
2022/08/25 02:29:49;;;;;;;21.47;17.53;;;21.50;87.50;;;;;;5082838;28;20844;-68
2022/08/25 02:32:16;;;;;;;16.83;15.13;;;21.50;88.40;;;;;;5079775;28;20874;-68
2022/08/25 02:34:43;;;;;;;16.40;14.97;;;21.50;88.50;;;;;;5084387;28;20469;-68
2022/08/25 02:37:11;;;;;;;16.10;14.73;;;21.50;88.90;;;;;;5086103;28;20494;-68
2022/08/25 02:39:38;;;;;;;16.03;14.63;;;21.50;88.70;;;;;;5083263;28;20461;-68
2022/08/25 02:42:06;;;;;;;19.33;15.03;;;21.40;88.60;;;;;;5080418;28;20473;-68
2022/08/25 02:44:33;;;;;;;16.27;14.87;;;21.40;89.50;;;;;;5084977;28;20465;-68
2022/08/25 02:47:01;;;;;;;27.10;16.30;;;21.30;90.00;;;;;;5082327;28;20463;-68
2022/08/25 02:49:30;;;;;;;16.90;15.27;;;21.30;90.00;;;;;;5078605;28;20482;-68
2022/08/25 02:51:59;;;;;;;18.03;16.17;;;21.30;90.00;;;;;;5087178;28;20461;-68
2022/08/25 02:54:26;;;;;;;17.70;14.97;;;21.40;89.90;;;;;;5084782;28;20454;-68
2022/08/25 02:56:54;;;;;;;16.60;15.17;;;21.40;89.70;;;;;;5078716;28;20458;-68
2022/08/25 02:59:23;;;;;;;20.13;15.07;;;21.40;89.80;;;;;;5084558;28;20478;-67
2022/08/25 03:01:50;;;;;;;15.67;14.47;;;21.50;89.70;;;;;;5088496;28;20720;-68
2022/08/25 03:04:18;;;;;;;28.03;16.43;;;21.50;89.10;;;;;;5079314;28;20977;-68
2022/08/25 03:06:45;;;;;;;16.77;15.40;;;21.50;89.30;;;;;;5085215;28;20454;-68
2022/08/25 03:09:13;;;;;;;16.37;15.10;;;21.50;89.80;;;;;;5078965;28;20569;-68
2022/08/25 03:11:41;;;;;;;21.80;15.73;;;21.50;89.90;;;;;;5084805;28;20462;-67
2022/08/25 03:14:09;;;;;;;21.43;15.20;;;21.40;89.70;;;;;;5082444;28;20546;-68
2022/08/25 03:16:37;;;;;;;17.43;15.80;;;21.40;89.60;;;;;;5083227;28;20487;-68
2022/08/25 03:19:05;;;;;;;17.20;15.90;;;21.40;89.90;;;;;;5084220;28;20513;-67
2022/08/25 03:21:34;;;;;;;18.17;16.20;;;21.30;90.10;;;;;;5078996;28;20458;-67
2022/08/25 03:24:01;;;;;;;18.10;16.13;;;21.30;90.10;;;;;;5080049;28;20477;-68
2022/08/25 03:29:14;;;;;;;16.60;15.07;;;21.30;90.10;;;;;;5083132;28;20457;-68
2022/08/25 03:31:44;;;;;;;17.80;16.07;;;21.20;90.10;;;;;;5079722;28;20470;-67
2022/08/25 03:34:11;;;;;;;16.13;15.00;;;21.20;90.10;;;;;;5075534;28;20469;-68
2022/08/25 03:36:41;;;;;;;16.07;15.00;;;21.20;90.20;;;;;;5078383;28;20466;-68
2022/08/25 03:39:08;;;;;;;16.87;15.17;;;21.30;90.20;;;;;;5079666;28;20466;-68
2022/08/25 03:41:35;;;;;;;16.90;15.17;;;21.30;90.40;;;;;;5077388;28;20899;-67
2022/08/25 03:44:04;;;;;;;15.77;14.77;;;21.20;90.70;;;;;;5080913;28;20455;-67
2022/08/25 03:46:33;;;;;;;17.87;15.97;;;21.20;91.00;;;;;;5080458;28;20459;-67
2022/08/25 03:49:03;;;;;;;16.83;15.50;;;21.10;90.90;;;;;;5080990;28;20455;-68
2022/08/25 03:51:33;;;;;;;17.17;15.30;;;21.00;91.40;;;;;;5078384;28;20465;-66
2022/08/25 03:54:04;;;;;;;16.60;15.20;;;21.10;91.10;;;;;;5084869;28;20462;-67
2022/08/25 03:56:31;;;;;;;16.53;14.93;;;21.10;91.40;;;;;;5083781;28;20563;-67
2022/08/25 03:58:59;;;;;;;17.47;16.13;;;21.00;91.60;;;;;;5082187;28;20469;-68
2022/08/25 04:01:26;;;;;;;17.50;15.73;;;21.00;91.70;;;;;;5081923;28;20454;-68
2022/08/25 04:03:53;;;;;;;17.07;15.50;;;21.00;91.50;;;;;;5082931;28;20466;-68
2022/08/25 04:06:21;;;;;;;19.50;16.07;;;21.00;91.60;;;;;;5063065;28;20504;-68
2022/08/25 04:08:51;;;;;;;17.53;16.20;;;21.00;91.50;;;;;;5047128;28;20978;-68
2022/08/25 04:11:21;;;;;;;21.07;16.37;;;21.10;91.50;;;;;;5048155;28;20479;-67
2022/08/25 04:13:49;;;;;;;17.97;15.73;;;21.10;91.50;;;;;;5047646;28;20459;-68
2022/08/25 04:16:19;;;;;;;16.87;15.67;;;21.10;91.40;;;;;;5047278;28;20589;-69
2022/08/25 04:18:48;;;;;;;17.60;15.87;;;21.20;91.50;;;;;;5048713;28;20471;-68
2022/08/25 04:21:16;;;;;;;19.60;15.90;;;21.20;91.60;;;;;;5048154;28;20983;-68
2022/08/25 04:23:44;;;;;;;15.93;14.90;;;21.20;91.60;;;;;;5046144;28;20467;-68
2022/08/25 04:26:13;;;;;;;16.63;15.07;;;21.10;91.70;;;;;;5047984;28;20470;-68
2022/08/25 04:28:42;;;;;;;20.53;15.80;;;21.10;91.70;;;;;;5048885;28;20463;-68
2022/08/25 04:31:10;;;;;;;16.67;15.57;;;21.10;91.90;;;;;;5044897;28;21024;-67
2022/08/25 04:33:38;;;;;;;17.00;15.53;;;21.10;92.00;;;;;;5048285;28;21028;-68
2022/08/25 04:36:06;;;;;;;19.20;15.73;;;21.10;92.20;;;;;;5046302;28;20482;-69
2022/08/25 04:38:33;;;;;;;16.53;15.00;;;21.10;92.40;;;;;;5044537;28;20559;-67
2022/08/25 04:41:01;;;;;;;17.47;15.73;;;21.10;92.20;;;;;;5048028;28;20900;-68
2022/08/25 04:43:28;;;;;;;29.07;16.10;;;21.00;92.80;;;;;;5047691;28;20471;-68
2022/08/25 04:45:56;;;;;;;16.93;15.63;;;20.80;93.00;;;;;;5047708;28;20462;-68
2022/08/25 04:48:23;;;;;;;18.00;16.20;;;20.60;93.40;;;;;;5047769;28;20474;-68
2022/08/25 04:50:50;;;;;;;29.20;16.80;;;20.50;93.60;;;;;;5047610;28;20839;-67
2022/08/25 04:53:18;;;;;;;19.47;16.47;;;20.50;94.00;;;;;;5044678;28;20462;-68
2022/08/25 04:55:46;;;;;;;19.00;16.30;;;20.40;94.50;;;;;;5047453;28;21139;-68
2022/08/25 04:58:14;;;;;;;18.23;16.70;;;20.30;96.00;;;;;;5047640;28;20809;-67
2022/08/25 05:00:42;;;;;;;21.10;16.50;;;20.20;97.00;;;;;;5046971;28;20482;-68
2022/08/25 05:03:10;;;;;;;18.73;16.93;;;20.10;98.50;;;;;;5046542;28;20897;-67
2022/08/25 05:05:39;;;;;;;20.37;16.70;;;20.00;99.40;;;;;;5046640;28;20477;-68
2022/08/25 05:08:06;;;;;;;18.97;17.03;;;19.90;99.90;;;;;;5044845;28;21430;-67
2022/08/25 05:10:33;;;;;;;18.73;16.97;;;19.90;99.90;;;;;;5046191;28;20486;-68
2022/08/25 05:13:00;;;;;;;19.40;16.83;;;19.80;99.90;;;;;;5046934;28;20459;-68
2022/08/25 05:18:14;;;;;;;18.83;17.33;;;19.80;99.90;;;;;;5047793;28;20873;-68
2022/08/25 05:20:41;;;;;;;19.03;17.33;;;19.80;99.90;;;;;;5047417;28;20474;-69
2022/08/25 05:23:08;;;;;;;20.20;17.83;;;19.90;99.90;;;;;;5044630;28;21057;-68
2022/08/25 05:25:35;;;;;;;18.40;16.90;;;19.90;99.90;;;;;;5045848;28;22393;-68
2022/08/25 05:28:03;;;;;;;19.83;17.60;;;19.90;99.90;;;;;;5069037;28;20589;-68
2022/08/25 05:30:30;;;;;;;31.70;18.73;;;19.80;99.90;;;;;;5074824;28;21088;-68
2022/08/25 05:32:57;;;;;;;28.23;17.97;;;19.90;99.90;;;;;;5044420;28;20454;-68
2022/08/25 05:35:25;;;;;;;19.50;17.43;;;20.00;99.90;;;;;;5046644;28;20528;-68
2022/08/25 05:37:52;;;;;;;33.53;18.07;;;20.00;99.90;;;;;;5044682;28;20465;-68
2022/08/25 05:40:19;;;;;;;23.03;18.33;;;20.00;99.90;;;;;;5068256;28;20464;-67
2022/08/25 05:42:46;;;;;;;31.43;17.93;;;20.10;99.90;;;;;;5075807;28;20469;-67
2022/08/25 05:45:13;;;;;;;25.00;18.30;;;20.30;99.90;;;;;;5070248;28;20462;-68
2022/08/25 05:47:41;;;;;;;29.83;18.20;;;20.30;99.90;;;;;;5046998;28;20466;-68
2022/08/25 05:50:09;;;;;;;29.80;17.93;;;20.40;99.90;;;;;;5046613;28;20490;-67
2022/08/25 05:52:38;;;;;;;21.53;17.77;;;20.50;99.90;;;;;;5048424;28;20489;-68
2022/08/25 05:55:06;;;;;;;33.90;19.13;;;20.60;99.90;;;;;;5049680;28;21021;-68
2022/08/25 05:57:34;;;;;;;21.03;18.17;;;20.60;99.90;;;;;;5048384;28;20462;-68
2022/08/25 06:00:01;;;;;;;19.97;17.70;;;20.70;99.90;;;;;;5049152;28;20463;-68
2022/08/25 06:02:43;;;;;;;19.93;17.90;;;20.90;99.90;;;;;;5047425;28;20459;-68
2022/08/25 06:05:12;;;;;;;23.03;17.57;;;21.00;99.90;;;;;;5059286;28;20542;-68
2022/08/25 06:07:41;;;;;;;27.93;18.20;;;21.10;99.90;;;;;;5066363;28;20466;-68
2022/08/25 06:10:10;;;;;;;22.73;18.63;;;21.20;99.90;;;;;;5048445;28;20475;-68
2022/08/25 06:12:38;;;;;;;36.03;18.47;;;21.30;99.90;;;;;;5048544;28;21015;-68
2022/08/25 06:15:06;;;;;;;20.20;18.53;;;21.50;99.90;;;;;;5048007;28;20829;-68
2022/08/25 06:17:34;;;;;;;20.97;18.70;;;21.60;99.90;;;;;;5050705;28;20470;-67
2022/08/25 06:20:02;;;;;;;23.30;18.20;;;21.70;99.90;;;;;;5049867;28;20463;-69
2022/08/25 06:22:29;;;;;;;22.67;18.13;;;21.80;99.90;;;;;;5048528;28;20809;-67
2022/08/25 06:24:57;;;;;;;22.90;18.30;;;21.90;99.90;;;;;;5049722;28;20463;-68
2022/08/25 06:27:24;;;;;;;34.43;18.87;;;22.00;99.90;;;;;;5048831;28;20890;-69
2022/08/25 06:29:51;;;;;;;27.27;18.67;;;22.20;99.90;;;;;;5049548;28;21348;-68
2022/08/25 06:32:18;;;;;;;28.13;18.37;;;22.30;99.90;;;;;;5045818;28;20494;-68
2022/08/25 06:34:45;;;;;;;30.37;19.47;;;22.40;99.90;;;;;;5047931;28;20469;-68
2022/08/25 06:37:12;;;;;;;29.23;18.63;;;22.60;99.90;;;;;;5048343;28;20498;-68
2022/08/25 06:39:38;;;;;;;32.33;19.33;;;22.70;99.90;;;;;;5047487;28;20458;-69
2022/08/25 06:42:07;;;;;;;34.40;19.60;;;22.90;99.90;;;;;;5047685;28;20462;-69
2022/08/25 06:44:35;;;;;;;27.83;19.23;;;23.10;99.90;;;;;;5048418;28;20458;-69
2022/08/25 06:47:01;;;;;;;22.77;18.27;;;23.20;99.90;;;;;;5048363;28;20481;-68
2022/08/25 06:49:28;;;;;;;51.97;19.30;;;23.40;99.90;;;;;;5050571;28;20948;-69
2022/08/25 06:51:55;;;;;;;34.27;19.80;;;23.50;99.90;;;;;;5049076;28;20496;-69
2022/08/25 06:54:22;;;;;;;27.20;18.70;;;23.70;99.90;;;;;;5050515;28;20471;-69
2022/08/25 06:56:49;;;;;;;34.83;19.03;;;23.80;99.50;;;;;;5049961;28;20466;-68
2022/08/25 06:59:18;;;;;;;24.07;18.20;;;23.90;99.10;;;;;;5049610;28;20466;-68
2022/08/25 07:01:45;;;;;;;31.17;18.23;;;24.00;98.50;;;;;;5049199;28;20626;-68
2022/08/25 07:04:12;;;;;;;26.17;18.33;;;24.10;98.50;;;;;;5049710;28;22414;-69
2022/08/25 07:06:39;;;;;;;32.50;18.90;;;24.20;98.10;;;;;;5049312;28;20459;-69
2022/08/25 07:09:08;;;;;;;21.90;17.87;;;24.30;97.70;;;;;;5049448;28;20470;-70
2022/08/25 07:11:35;;;;;;;20.30;18.20;;;24.40;97.30;;;;;;5048848;28;20497;-68
2022/08/25 07:14:03;;;;;;;19.13;17.23;;;24.50;97.20;;;;;;5048615;28;20821;-69
2022/08/25 07:16:32;;;;;;;20.30;17.07;;;24.70;97.10;;;;;;5048783;28;20798;-69
2022/08/25 07:18:59;;;;;;;20.03;18.07;;;24.80;96.40;;;;;;5049132;28;20478;-68
2022/08/25 07:21:28;;;;;;;18.13;16.90;;;24.90;95.50;;;;;;5048389;28;21690;-68
2022/08/25 07:23:57;;;;;;;19.03;17.33;;;25.10;95.30;;;;;;5048439;28;20459;-68
2022/08/25 07:26:28;;;;;;;21.30;18.30;;;25.30;94.50;;;;;;5049172;28;20973;-69
2022/08/25 07:28:56;;;;;;;20.03;17.83;;;25.30;94.00;;;;;;5048404;28;20463;-69
2022/08/25 07:31:24;;;;;;;19.47;16.90;;;25.50;93.90;;;;;;5048704;28;20513;-69
2022/08/25 07:36:36;;;;;;;23.27;18.20;;;25.70;93.10;;;;;;5049314;28;20458;-69
2022/08/25 07:39:04;;;;;;;25.33;18.03;;;25.90;92.50;;;;;;5047714;28;20556;-68
2022/08/25 07:41:33;;;;;;;19.87;17.87;;;25.90;92.10;;;;;;5048807;28;21020;-68
2022/08/25 07:44:00;;;;;;;20.17;18.20;;;26.00;91.70;;;;;;5048706;28;20482;-68
2022/08/25 07:46:27;;;;;;;20.67;18.37;;;26.10;91.50;;;;;;5048298;28;20820;-68
2022/08/25 07:48:55;;;;;;;25.13;19.13;;;26.20;91.30;;;;;;5046144;28;21029;-68
2022/08/25 07:51:22;;;;;;;20.07;17.37;;;26.20;90.40;;;;;;5048056;28;20486;-68
2022/08/25 07:53:49;;;;;;;19.10;17.17;;;26.20;90.40;;;;;;5047913;28;22528;-70
2022/08/25 07:56:17;;;;;;;19.03;17.23;;;26.30;90.30;;;;;;5069985;28;20496;-68
2022/08/25 07:58:44;;;;;;;18.73;17.00;;;26.60;90.20;;;;;;5080641;28;20459;-68
2022/08/25 08:01:15;;;;;;;22.40;17.90;;;26.60;88.60;;;;;;5047428;28;20482;-69
2022/08/25 08:03:42;;;;;;;19.53;17.90;;;26.70;88.60;;;;;;5049672;28;20565;-69
2022/08/25 08:06:12;;;;;;;19.60;17.60;;;26.90;87.40;;;;;;5047959;28;20491;-68
2022/08/25 08:08:42;;;;;;;21.37;17.73;;;27.10;87.10;;;;;;5044435;28;20457;-69
2022/08/25 08:11:15;;;;;;;20.07;18.17;;;27.30;86.50;;;;;;5049086;28;20478;-69
2022/08/25 08:13:42;;;;;;;17.80;16.40;;;27.40;87.00;;;;;;5048179;28;20465;-69
2022/08/25 08:16:10;;;;;;;19.80;17.83;;;27.40;85.30;;;;;;5048392;28;20489;-69
2022/08/25 08:18:37;;;;;;;21.17;17.07;;;27.50;85.00;;;;;;5047913;28;20507;-68
2022/08/25 08:21:04;;;;;;;19.37;17.40;;;27.70;84.20;;;;;;5047458;28;20474;-69
2022/08/25 08:23:33;;;;;;;19.03;17.33;;;27.60;84.60;;;;;;5047078;28;20469;-68
2022/08/25 08:26:00;;;;;;;19.33;17.63;;;27.80;83.30;;;;;;5041974;28;20465;-68
2022/08/25 08:28:27;;;;;;;19.13;17.53;;;27.80;82.40;;;;;;5044891;28;20500;-70
2022/08/25 08:30:54;;;;;;;19.67;17.83;;;27.90;83.40;;;;;;5045944;28;20483;-68
2022/08/25 08:33:23;;;;;;;19.63;17.50;;;28.10;81.50;;;;;;5047803;28;21209;-69
2022/08/25 08:35:57;;;;;;;23.17;19.50;;;28.10;82.60;;;;;;5048234;28;20467;-68
2022/08/25 08:38:24;;;;;;;29.63;17.83;;;28.20;81.30;;;;;;5047839;28;20871;-68
2022/08/25 08:43:47;;;;;;;18.83;17.10;;;28.50;81.10;;;;;;5048920;28;20465;-69
2022/08/25 08:46:14;;;;;;;20.73;17.67;;;28.80;80.70;;;;;;5048833;28;21412;-69
2022/08/25 08:48:51;;;;;;;20.33;17.47;;;28.90;80.00;;;;;;5047669;28;20844;-68
2022/08/25 08:51:23;;;;;;;19.33;17.93;;;28.90;79.30;;;;;;5044900;28;21195;-69
2022/08/25 08:53:54;;;;;;;20.13;18.53;;;29.20;78.40;;;;;;5047917;28;20459;-69
2022/08/25 08:56:26;;;;;;;19.13;17.40;;;29.30;76.10;;;;;;5046011;28;20605;-69
2022/08/25 08:58:56;;;;;;;19.43;17.80;;;29.50;75.30;;;;;;5047683;28;20458;-69
2022/08/25 09:01:27;;;;;;;18.37;16.97;;;30.10;75.00;;;;;;5046570;28;20572;-69
2022/08/25 09:04:11;;;;;;;19.63;17.70;;;30.80;71.10;;;;;;5046519;28;20462;-70
2022/08/25 09:06:42;;;;;;;19.83;18.20;;;31.60;69.30;;;;;;5044101;28;20463;-70
2022/08/25 09:09:12;;;;;;;21.70;17.80;;;32.40;66.50;;;;;;5045112;28;20478;-69
2022/08/25 09:11:52;;;;;;;18.90;17.40;;;32.90;63.20;;;;;;5046597;28;20560;-69
2022/08/25 09:14:33;;;;;;;19.20;17.80;;;33.30;59.70;;;;;;5045050;28;20470;-69
2022/08/25 09:17:05;;;;;;;19.87;17.73;;;33.90;58.40;;;;;;5046266;28;20492;-70
2022/08/25 09:19:50;;;;;;;19.90;18.10;;;34.60;57.20;;;;;;5045534;28;20463;-69
2022/08/25 09:22:28;;;;;;;18.67;17.17;;;35.30;54.50;;;;;;5045276;28;20478;-70
2022/08/25 09:25:03;;;;;;;18.67;17.37;;;35.40;53.40;;;;;;5044801;28;20450;-69
2022/08/25 09:27:40;;;;;;;18.60;16.80;;;35.30;52.30;;;;;;5046064;28;20470;-69
2022/08/25 09:30:10;;;;;;;19.20;17.77;;;35.60;50.90;;;;;;5047234;28;21036;-70
2022/08/25 09:32:41;;;;;;;19.07;17.67;;;35.10;50.60;;;;;;5047253;28;21056;-69
2022/08/25 09:35:14;;;;;;;18.30;17.00;;;34.90;50.20;;;;;;5046967;28;20459;-70
2022/08/25 09:37:41;;;;;;;18.70;17.50;;;35.00;49.60;;;;;;5047089;28;20460;-69
2022/08/25 09:40:10;;;;;;;18.93;17.30;;;35.40;49.10;;;;;;5042078;28;20463;-70
2022/08/25 09:42:49;;;;;;;18.47;17.03;;;35.80;48.70;;;;;;5047395;28;20625;-70
2022/08/25 09:45:30;;;;;;;18.57;17.33;;;36.60;46.90;;;;;;5076993;28;20530;-69
2022/08/25 09:47:57;;;;;;;18.37;16.97;;;36.60;46.20;;;;;;5067865;28;20467;-70
2022/08/25 09:50:24;;;;;;;18.63;16.70;;;36.60;46.70;;;;;;5078862;28;20454;-69
2022/08/25 09:52:51;;;;;;;18.47;17.13;;;37.10;44.60;;;;;;5074099;28;20483;-69
2022/08/25 09:55:29;;;;;;;17.70;16.57;;;37.40;45.40;;;;;;5052757;28;20482;-70
2022/08/25 09:57:58;;;;;;;18.93;17.63;;;37.30;44.20;;;;;;5047621;28;20459;-70
2022/08/25 10:00:27;;;;;;;24.63;16.20;;;37.00;44.60;;;;;;5046951;28;20465;-69
2022/08/25 10:03:05;;;;;;;17.80;16.67;;;37.30;44.50;;;;;;5048071;28;20469;-70
2022/08/25 10:05:35;;;;;;;18.37;16.90;;;37.80;44.60;;;;;;5043983;28;20969;-69
2022/08/25 10:08:10;;;;;;;18.93;17.40;;;38.00;42.50;;;;;;5047346;28;20466;-70
2022/08/25 10:10:44;;;;;;;18.50;16.90;;;37.80;42.10;;;;;;5048443;28;20863;-70
2022/08/25 10:13:17;;;;;;;18.90;16.97;;;38.20;42.80;;;;;;5045470;28;20571;-69
2022/08/25 10:15:45;;;;;;;18.47;16.73;;;38.60;41.20;;;;;;5037861;28;20478;-69
2022/08/25 10:18:24;;;;;;;18.43;17.13;;;38.00;41.00;;;;;;5036544;28;20471;-70
2022/08/25 10:21:09;;;;;;;18.27;17.03;;;37.80;40.80;;;;;;5057067;28;20457;-70
2022/08/25 10:23:39;;;;;;;18.30;16.97;;;37.10;41.90;;;;;;5026246;28;20462;-69
2022/08/25 10:26:14;;;;;;;18.70;17.60;;;37.60;41.70;;;;;;5024708;28;20475;-70
2022/08/25 10:28:51;;;;;;;18.10;16.90;;;38.10;40.70;;;;;;5025834;28;20549;-70
2022/08/25 10:31:22;;;;;;;18.00;16.50;;;38.50;39.60;;;;;;5024614;28;20490;-70
2022/08/25 10:34:01;;;;;;;18.07;16.87;;;38.50;40.30;;;;;;5027420;28;20466;-70
2022/08/25 10:36:40;;;;;;;18.30;16.90;;;38.40;40.00;;;;;;5025694;28;20490;-71
2022/08/25 10:39:15;;;;;;;18.37;16.60;;;36.50;40.30;;;;;;5029051;28;20451;-70
2022/08/25 10:41:56;;;;;;;18.60;17.27;;;35.50;42.20;;;;;;5029461;28;20471;-69
2022/08/25 10:47:42;;;;;;;17.50;16.30;;;36.60;42.00;;;;;;5029194;28;21016;-70
2022/08/25 10:50:17;;;;;;;17.20;16.30;;;37.30;40.50;;;;;;5030085;28;20468;-70
2022/08/25 10:52:57;;;;;;;17.90;16.90;;;37.90;37.80;;;;;;5026391;28;20526;-69
2022/08/25 10:55:29;;;;;;;18.03;16.43;;;37.60;39.90;;;;;;5030610;28;20490;-70
2022/08/25 10:58:03;;;;;;;18.20;17.00;;;37.80;40.40;;;;;;5027578;28;20455;-70
2022/08/25 11:00:36;;;;;;;17.53;15.90;;;38.20;39.30;;;;;;5029721;28;20565;-70
2022/08/25 11:03:18;;;;;;;16.17;15.40;;;38.90;36.80;;;;;;5042527;28;20965;-69
2022/08/25 11:05:49;;;;;;;17.53;16.43;;;38.50;35.90;;;;;;5044698;28;20475;-69
2022/08/25 11:08:21;;;;;;;19.00;17.47;;;38.70;36.00;;;;;;5030166;28;21025;-70
2022/08/25 11:10:52;;;;;;;17.47;16.47;;;39.10;36.40;;;;;;5030288;28;20455;-70
2022/08/25 11:13:25;;;;;;;17.30;16.10;;;39.10;35.30;;;;;;5027607;28;20919;-69
2022/08/25 11:15:58;;;;;;;18.10;16.70;;;39.30;36.40;;;;;;5029115;28;21079;-71
2022/08/25 11:18:28;;;;;;;16.70;15.80;;;39.80;35.30;;;;;;5027720;28;20873;-71
2022/08/25 11:21:03;;;;;;;17.60;16.37;;;40.40;33.20;;;;;;5028824;28;20463;-70
2022/08/25 11:23:35;;;;;;;18.23;16.63;;;41.00;33.90;;;;;;5028914;28;20466;-71
2022/08/25 11:26:07;;;;;;;16.80;15.50;;;41.60;32.90;;;;;;5029469;28;20479;-70
2022/08/25 11:28:44;;;;;;;16.13;15.27;;;41.60;33.20;;;;;;5048332;28;20862;-70
2022/08/25 11:31:15;;;;;;;17.77;16.53;;;41.20;32.80;;;;;;5060306;28;20450;-70
2022/08/25 11:33:43;;;;;;;16.43;15.63;;;40.50;33.20;;;;;;5060081;28;20463;-70
2022/08/25 11:36:19;;;;;;;16.30;15.40;;;41.10;32.30;;;;;;5048243;28;21090;-69
2022/08/25 11:38:55;;;;;;;15.87;15.07;;;41.20;31.40;;;;;;5056555;28;20469;-69
2022/08/25 11:41:33;;;;;;;16.80;15.50;;;40.80;30.70;;;;;;5060075;28;20453;-70
2022/08/25 11:44:30;;;;;;;16.50;15.60;;;41.60;31.30;;;;;;5052063;28;20472;-70
2022/08/25 11:47:18;;;;;;;17.40;15.60;;;41.50;31.80;;;;;;5027951;28;20480;-69
2022/08/25 11:49:52;;;;;;;17.10;16.10;;;41.60;31.90;;;;;;5029430;28;20468;-70
2022/08/25 11:52:52;;;;;;;17.97;16.20;;;42.40;30.70;;;;;;5027077;28;20865;-70
2022/08/25 11:55:25;;;;;;;17.10;16.10;;;42.30;31.10;;;;;;5029520;28;20483;-70
2022/08/25 11:58:12;;;;;;;16.57;15.67;;;42.10;30.50;;;;;;5029400;28;20456;-70
2022/08/25 12:00:42;;;;;;;17.60;16.50;;;42.10;29.90;;;;;;5029800;28;20464;-70
2022/08/25 12:03:42;;;;;;;16.77;15.70;;;41.80;30.10;;;;;;5037077;28;20498;-69
2022/08/25 12:06:21;;;;;;;17.07;16.10;;;41.80;30.90;;;;;;5034831;28;20531;-70
2022/08/25 12:08:53;;;;;;;17.60;16.17;;;42.40;30.00;;;;;;5028725;28;20491;-70
2022/08/25 12:11:43;;;;;;;16.37;15.47;;;42.70;29.20;;;;;;5027236;28;20476;-69
2022/08/25 12:14:32;;;;;;;17.20;16.00;;;43.20;29.80;;;;;;5028843;28;20502;-70
2022/08/25 12:17:08;;;;;;;16.90;16.00;;;42.60;29.60;;;;;;5027366;28;20805;-69
2022/08/25 12:19:50;;;;;;;17.10;15.93;;;42.10;28.70;;;;;;5027538;28;20460;-69
2022/08/25 12:22:50;;;;;;;16.53;15.73;;;42.40;28.40;;;;;;5027523;28;20497;-69
2022/08/25 12:25:36;;;;;;;16.53;15.63;;;43.20;26.90;;;;;;5028232;28;20525;-69
2022/08/25 12:28:14;;;;;;;16.13;15.40;;;42.60;26.60;;;;;;5029524;28;20962;-70
2022/08/25 12:30:46;;;;;;;16.57;15.10;;;42.40;25.60;;;;;;5028324;28;20959;-69
2022/08/25 12:33:25;;;;;;;16.53;15.50;;;42.80;25.90;;;;;;5028402;28;21209;-69
2022/08/25 12:35:57;;;;;;;17.00;16.00;;;42.90;26.40;;;;;;5028580;28;20984;-69
2022/08/25 12:38:32;;;;;;;16.20;15.20;;;43.70;27.10;;;;;;5028234;28;20561;-70
2022/08/25 12:41:04;;;;;;;15.87;14.77;;;43.60;26.60;;;;;;5028714;28;21466;-69
2022/08/25 12:43:33;;;;;;;15.87;14.63;;;44.00;26.80;;;;;;5027886;28;22090;-70
2022/08/25 12:46:32;;;;;;;15.60;14.60;;;43.70;26.80;;;;;;5028036;28;22424;-69
2022/08/25 12:49:00;;;;;;;15.40;14.50;;;43.90;27.40;;;;;;5028682;28;21068;-70
2022/08/25 12:51:38;;;;;;;15.90;14.70;;;43.90;25.90;;;;;;5028048;28;20561;-69
2022/08/25 12:54:17;;;;;;;15.20;14.30;;;43.20;25.80;;;;;;5028440;28;20874;-70
2022/08/25 12:56:47;;;;;;;15.70;14.90;;;42.70;25.80;;;;;;5027468;28;20478;-69
2022/08/25 12:59:17;;;;;;;14.83;13.80;;;43.00;25.50;;;;;;5027626;28;21509;-70